Terminal Aerodrome Forecast
Issued by NWS Midland/Odessa, TX

Home | Current Version | Previous Version | Text Only | Print | Product List | Glossary On
Versions: 1 2 3 4 5 6 7 8 9 10 11 12 13 14 15 16 17 18 19
000
FTUS44 KMAF 251916 AAB
TAFMAF
TAF AMD
KMAF 251916Z 2519/2618 26018G28KT P6SM BKN250
     FM260200 21010KT P6SM FEW200
     FM261200 26010KT P6SM SCT250
     FM261600 26013G23KT P6SM BKN250=

USA.gov is the U.S. government's official web portal to all federal, state and local government web resources and services.